Time;durP1;ratioP1;P1;durP2;ratioP2;P2;SDS_P1;SDS_P2;PMS_P1;PMS_P2;Temp;Humidity;BMP_temperature;BMP_pressure;BME280_temperature;BME280_humidity;BME280_pressure;Samples;Min_cycle;Max_cycle;Signal;HPM_P1;HPM_P2
2021/04/11 00:00:45;;;;;;;10.38;7.47;;;;;;;10.57;46.32;102640.75;1730236;82;21305;-49
2021/04/11 00:03:17;;;;;;;8.13;6.62;;;;;;;10.55;46.25;102639.87;1778670;80;21192;-48
2021/04/11 00:05:45;;;;;;;7.85;6.42;;;;;;;10.54;46.44;102639.41;1770217;81;21605;-45
2021/04/11 00:08:13;;;;;;;9.35;6.20;;;;;;;10.52;46.36;102643.73;1724312;82;21174;-49
2021/04/11 00:10:44;;;;;;;8.90;6.87;;;;;;;10.51;45.66;102636.34;1764976;81;21145;-46
2021/04/11 00:13:22;;;;;;;7.40;6.55;;;;;;;10.48;45.45;102635.45;1765507;81;21141;-47
2021/04/11 00:15:50;;;;;;;8.55;5.95;;;;;;;10.46;45.14;102640.66;1765520;81;21573;-51
2021/04/11 00:18:18;;;;;;;8.18;5.47;;;;;;;10.49;44.79;102642.39;1733794;82;21181;-45
2021/04/11 00:20:48;;;;;;;8.35;5.97;;;;;;;10.51;44.58;102647.18;1770270;81;21165;-48
2021/04/11 00:23:16;;;;;;;8.05;5.37;;;;;;;10.53;44.50;102644.19;1765123;81;21204;-45
2021/04/11 00:25:44;;;;;;;7.90;5.75;;;;;;;10.55;44.44;102643.77;1730190;82;21313;-45
2021/04/11 00:28:13;;;;;;;6.80;5.83;;;;;;;10.56;44.31;102649.41;1768342;81;21570;-47
2021/04/11 00:30:41;;;;;;;8.05;5.53;;;;;;;10.57;44.25;102648.56;1775832;81;21165;-50
2021/04/11 00:33:25;;;;;;;7.28;5.97;;;;;;;10.58;44.38;102650.29;1678711;85;21180;-46
2021/04/11 00:36:04;;;;;;;6.75;5.40;;;;;;;10.59;44.52;102646.84;1769338;80;21684;-49
2021/04/11 00:38:32;;;;;;;6.12;5.10;;;;;;;10.61;44.53;102652.94;1757565;81;21161;-49
2021/04/11 00:41:23;;;;;;;9.43;5.53;;;;;;;10.61;44.70;102651.17;1770749;81;21141;-49
2021/04/11 00:43:51;;;;;;;6.92;5.17;;;;;;;10.63;44.61;102652.52;1769346;81;21152;-47
2021/04/11 00:46:34;;;;;;;5.80;4.85;;;;;;;10.64;44.51;102652.94;1768084;81;21294;-47
2021/04/11 00:49:03;;;;;;;6.85;5.33;;;;;;;10.64;44.37;102652.52;1770260;81;21164;-45
2021/04/11 00:51:31;;;;;;;6.10;4.58;;;;;;;10.66;44.30;102656.42;1768191;81;21188;-49
2021/04/11 00:54:01;;;;;;;5.97;4.97;;;;;;;10.66;44.21;102659.03;1767311;81;21590;-51
2021/04/11 00:56:30;;;;;;;6.15;5.50;;;;;;;10.66;44.46;102656.42;1766768;81;21353;-46
2021/04/11 00:58:57;;;;;;;7.15;5.33;;;;;;;10.67;44.50;102658.19;1716086;82;21182;-49
2021/04/11 01:01:25;;;;;;;9.15;5.40;;;;;;;10.65;44.75;102661.21;1769786;81;21703;-45
2021/04/11 01:03:55;;;;;;;7.03;5.35;;;;;;;10.62;45.24;102657.27;1769349;81;21282;-48
2021/04/11 01:06:27;;;;;;;8.20;5.78;;;;;;;10.63;45.51;102660.33;1767306;81;21136;-50
2021/04/11 01:08:55;;;;;;;7.22;5.42;;;;;;;10.63;45.77;102660.33;1680023;84;21216;-49
2021/04/11 01:11:29;;;;;;;7.33;5.12;;;;;;;10.59;46.32;102657.26;1702039;81;21299;-48
2021/04/11 01:14:03;;;;;;;10.65;5.83;;;;;;;10.62;46.72;102657.27;1766145;81;21315;-46
2021/04/11 01:16:33;;;;;;;7.80;6.12;;;;;;;10.64;47.21;102662.05;1770073;81;21133;-47
2021/04/11 01:19:01;;;;;;;8.40;5.72;;;;;;;10.69;47.70;102661.67;1768862;81;21164;-50
2021/04/11 01:21:46;;;;;;;6.00;5.40;;;;;;;10.70;48.11;102662.09;1765125;81;21184;-48
2021/04/11 01:24:21;;;;;;;6.78;5.53;;;;;;;10.74;48.18;102664.32;1610809;88;21287;-50
2021/04/11 01:26:53;;;;;;;7.62;5.87;;;;;;;10.77;48.30;102656.09;1641592;85;21169;-46
2021/04/11 01:29:21;;;;;;;8.95;6.17;;;;;;;10.84;48.39;102659.17;1670968;85;21174;-46
2021/04/11 01:31:49;;;;;;;7.75;5.97;;;;;;;10.87;48.57;102667.02;1677401;85;21188;-46
2021/04/11 01:34:18;;;;;;;7.72;5.97;;;;;;;10.89;48.83;102661.81;1676165;85;21172;-48
2021/04/11 01:36:49;;;;;;;7.78;6.08;;;;;;;10.91;49.13;102659.66;1656215;85;21164;-45
2021/04/11 01:39:22;;;;;;;8.33;6.65;;;;;;;10.90;49.36;102656.60;1601010;86;21153;-48
2021/04/11 01:41:53;;;;;;;7.12;6.05;;;;;;;10.91;49.62;102658.78;1671869;85;21311;-49
2021/04/11 01:44:28;;;;;;;8.15;5.72;;;;;;;10.92;49.77;102660.09;1615225;88;21213;-49
2021/04/11 01:47:02;;;;;;;6.80;6.00;;;;;;;10.96;49.98;102661.88;1771685;79;23541;-51
2021/04/11 01:49:32;;;;;;;6.72;5.58;;;;;;;10.89;50.33;102659.20;1730563;82;21161;-48
2021/04/11 01:52:15;;;;;;;7.80;6.62;;;;;;;10.90;50.57;102658.36;1737191;82;21160;-45
2021/04/11 01:54:44;;;;;;;7.45;6.17;;;;;;;10.87;50.85;102657.91;1741116;82;21157;-45
2021/04/11 01:57:27;;;;;;;8.38;6.42;;;;;;;10.90;50.93;102654.00;1736421;82;21314;-47
2021/04/11 02:00:28;;;;;;;7.25;6.05;;;;;;;10.95;51.16;102662.73;1648245;85;21192;-49
2021/04/11 02:03:15;;;;;;;6.70;5.70;;;;;;;10.94;51.40;102662.27;1646826;86;21183;-50
2021/04/11 02:05:49;;;;;;;7.75;5.15;;;;;;;11.02;51.71;102656.72;1766542;79;23544;-45
2021/04/11 02:08:24;;;;;;;6.20;5.60;;;;;;;10.99;51.83;102659.70;1712701;83;21152;-50
2021/04/11 02:10:55;;;;;;;8.75;5.90;;;;;;;11.01;51.71;102658.86;1741914;82;21164;-45
2021/04/11 02:13:31;;;;;;;6.42;5.55;;;;;;;11.02;51.56;102655.41;1734693;82;21144;-45
2021/04/11 02:16:01;;;;;;;5.90;4.92;;;;;;;11.08;51.41;102655.45;1738585;82;21164;-49
2021/04/11 02:18:34;;;;;;;6.20;5.12;;;;;;;11.11;51.37;102654.15;1732273;80;21165;-49
2021/04/11 02:21:09;;;;;;;5.33;4.42;;;;;;;11.17;51.26;102652.03;1744726;81;21141;-45
2021/04/11 02:23:37;;;;;;;5.53;4.22;;;;;;;11.19;50.33;102653.77;1691226;83;21156;-50
2021/04/11 02:26:10;;;;;;;5.55;4.12;;;;;;;11.20;49.61;102658.13;1703792;83;21605;-48
2021/04/11 02:28:38;;;;;;;5.28;4.28;;;;;;;11.24;48.62;102659.89;1703656;83;21184;-45
2021/04/11 02:31:16;;;;;;;6.42;4.50;;;;;;;11.28;49.06;102656.43;1703640;83;21164;-49
2021/04/11 02:34:03;;;;;;;6.00;4.20;;;;;;;11.31;49.04;102660.34;1702379;83;21608;-48
2021/04/11 02:36:48;;;;;;;6.20;4.75;;;;;;;11.36;48.72;102663.86;1703711;83;21184;-47
2021/04/11 02:39:22;;;;;;;5.67;4.78;;;;;;;11.39;48.54;102661.28;1703678;83;21200;-48
2021/04/11 02:41:56;;;;;;;7.58;4.50;;;;;;;11.47;48.46;102656.09;1820016;79;22584;-46
2021/04/11 02:44:25;;;;;;;6.67;5.15;;;;;;;11.44;47.93;102662.16;1779088;80;21109;-51
2021/04/11 02:46:53;;;;;;;5.33;3.90;;;;;;;11.42;46.97;102659.09;1770856;80;21640;-48
2021/04/11 02:49:22;;;;;;;5.20;4.33;;;;;;;11.39;46.17;102660.41;1726360;81;21188;-48
2021/04/11 02:51:50;;;;;;;7.30;4.40;;;;;;;11.35;45.68;102664.70;1764035;81;21152;-50
2021/04/11 02:54:22;;;;;;;5.62;3.98;;;;;;;11.32;45.24;102662.09;1720818;83;21180;-46
2021/04/11 02:56:51;;;;;;;5.30;3.95;;;;;;;11.30;44.82;102662.52;1684458;83;21169;-50
2021/04/11 02:59:21;;;;;;;6.92;4.37;;;;;;;11.30;45.27;102666.44;1711814;83;21173;-50
2021/04/11 03:01:51;;;;;;;5.05;4.10;;;;;;;11.27;45.41;102666.40;1703883;83;21157;-49
2021/04/11 03:04:21;;;;;;;6.90;4.20;;;;;;;11.25;44.77;102666.83;1719646;83;21617;-49
2021/04/11 03:07:02;;;;;;;4.85;4.00;;;;;;;11.22;44.03;102669.42;1730476;83;21580;-48
2021/04/11 03:09:47;;;;;;;5.25;4.10;;;;;;;11.18;43.38;102658.55;1698400;83;21157;-48
2021/04/11 03:12:24;;;;;;;4.67;3.85;;;;;;;11.20;44.10;102664.64;1812481;79;23080;-51
2021/04/11 03:14:56;;;;;;;5.30;3.90;;;;;;;11.13;44.39;102659.36;1774229;80;21140;-46
2021/04/11 03:17:26;;;;;;;4.95;4.00;;;;;;;11.10;43.84;102664.14;1719505;81;21136;-46
2021/04/11 03:20:15;;;;;;;6.17;4.45;;;;;;;11.06;43.30;102671.50;1744638;81;21113;-46
2021/04/11 03:22:45;;;;;;;5.62;4.42;;;;;;;11.00;42.61;102668.86;1709351;82;21616;-50
2021/04/11 03:25:15;;;;;;;5.75;4.28;;;;;;;10.94;42.34;102666.18;1705318;83;21621;-47
2021/04/11 03:28:16;;;;;;;6.00;4.58;;;;;;;10.92;41.89;102668.36;1724776;83;21160;-45
2021/04/11 03:31:21;;;;;;;5.87;4.08;;;;;;;10.88;42.19;102671.34;1684892;85;21165;-50
2021/04/11 03:33:59;;;;;;;4.58;3.83;;;;;;;10.91;42.53;102675.30;1810174;79;22327;-45
2021/04/11 03:36:27;;;;;;;4.70;4.20;;;;;;;10.83;42.03;102675.67;1746778;80;21160;-49
2021/04/11 03:38:57;;;;;;;5.80;4.22;;;;;;;10.81;41.50;102681.30;1781133;80;21112;-47
2021/04/11 03:41:31;;;;;;;6.97;4.33;;;;;;;10.80;41.94;102675.62;1780085;80;21167;-46
2021/04/11 03:44:02;;;;;;;5.25;4.35;;;;;;;10.78;42.13;102674.75;1783818;80;21168;-45
2021/04/11 03:46:40;;;;;;;7.33;4.22;;;;;;;10.79;42.03;102676.51;1769975;80;21113;-48
2021/04/11 03:49:35;;;;;;;6.25;4.22;;;;;;;10.76;41.81;102676.47;1773367;80;21149;-45
2021/04/11 03:52:11;;;;;;;5.70;4.40;;;;;;;10.75;41.94;102677.34;1777893;80;21208;-49
2021/04/11 03:54:41;;;;;;;9.60;4.17;;;;;;;10.75;41.54;102674.74;1777051;80;21117;-45
2021/04/11 03:57:22;;;;;;;6.97;4.47;;;;;;;10.76;41.00;102676.92;1749229;80;21116;-45
2021/04/11 04:00:05;;;;;;;9.50;4.42;;;;;;;10.75;40.05;102681.25;1773167;80;21156;-47
2021/04/11 04:02:38;;;;;;;5.72;4.45;;;;;;;10.75;40.43;102680.37;1777162;80;21601;-49
2021/04/11 04:05:09;;;;;;;6.25;4.55;;;;;;;10.77;40.34;102688.64;1779367;80;21184;-50
2021/04/11 04:07:49;;;;;;;6.90;5.40;;;;;;;10.80;39.93;102686.50;1772859;80;21148;-49
2021/04/11 04:10:25;;;;;;;5.92;4.33;;;;;;;10.80;39.95;102686.05;1738136;81;21173;-49
2021/04/11 04:13:21;;;;;;;6.75;4.53;;;;;;;10.82;40.23;102689.53;1744561;82;21176;-45
2021/04/11 04:16:20;;;;;;;7.17;4.50;;;;;;;10.89;40.43;102690.46;1801835;79;23487;-50
2021/04/11 04:19:22;;;;;;;6.25;4.58;;;;;;;10.86;40.42;102696.51;1712148;83;22790;-50
2021/04/11 04:22:29;;;;;;;5.87;4.12;;;;;;;10.91;40.63;102697.43;1800963;79;22647;-45
2021/04/11 04:25:23;;;;;;;6.62;4.17;;;;;;;10.88;40.81;102701.30;1777260;80;21302;-47
2021/04/11 04:28:33;;;;;;;6.28;4.15;;;;;;;10.91;40.16;102702.64;1786374;80;21112;-49
2021/04/11 04:31:09;;;;;;;6.45;4.45;;;;;;;10.95;39.60;102703.10;1711951;83;21164;-48
2021/04/11 04:34:16;;;;;;;4.87;3.92;;;;;;;10.98;40.19;102704.45;1679988;84;21184;-48
2021/04/11 04:36:50;;;;;;;4.58;4.05;;;;;;;11.00;40.28;102705.33;1705254;84;21233;-48
2021/04/11 04:39:41;;;;;;;7.47;4.62;;;;;;;11.03;39.69;102706.63;1653594;86;21334;-46
2021/04/11 04:42:30;;;;;;;6.60;4.87;;;;;;;11.05;39.05;102710.12;1670834;85;21160;-49
2021/04/11 04:45:39;;;;;;;6.42;4.58;;;;;;;11.09;38.75;102709.28;1805707;79;22946;-48
2021/04/11 04:48:20;;;;;;;5.80;4.35;;;;;;;11.04;38.99;102705.80;1776198;80;21163;-49
2021/04/11 04:51:01;;;;;;;7.75;4.87;;;;;;;11.06;39.85;102709.70;1746385;80;21152;-45
2021/04/11 04:53:34;;;;;;;7.03;4.87;;;;;;;11.06;40.47;102714.91;1696691;84;21171;-45
2021/04/11 04:56:06;;;;;;;7.10;4.87;;;;;;;11.06;41.15;102721.00;1682709;84;21136;-45
2021/04/11 04:58:39;;;;;;;;;;;;;;;11.05;40.31;102716.64;1700016;84;21287;-44
2021/04/11 05:01:27;;;;;;;5.80;4.65;;;;;;;11.06;40.53;102714.48;1699972;84;20170;-45
2021/04/11 05:04:01;;;;;;;6.40;4.42;;;;;;;11.04;39.36;102718.81;1694490;84;21195;-48
2021/04/11 05:06:43;;;;;;;7.33;5.20;;;;;;;11.04;39.21;102720.12;1695998;84;21195;-49
2021/04/11 05:09:26;;;;;;;5.80;4.65;;;;;;;11.03;39.13;102722.69;1693681;84;21608;-50
2021/04/11 05:12:04;;;;;;;6.33;5.15;;;;;;;11.04;39.96;102725.33;1694987;84;21252;-46
2021/04/11 05:14:38;;;;;;;8.78;5.35;;;;;;;11.05;40.15;102728.36;1698206;83;21332;-47
2021/04/11 05:17:23;;;;;;;6.20;5.28;;;;;;;11.11;41.09;102728.40;1810214;79;23001;-49
2021/04/11 05:20:13;;;;;;;7.53;5.90;;;;;;;11.11;41.27;102731.01;1801980;79;27981;-46
2021/04/11 05:23:24;;;;;;;6.50;5.33;;;;;;;11.14;40.55;102736.26;1785743;79;21176;-49
2021/04/11 05:26:02;;;;;;;6.47;4.87;;;;;;;11.23;40.08;102735.00;1788782;79;21177;-48
2021/04/11 05:28:51;;;;;;;13.28;6.30;;;;;;;11.27;39.77;102731.55;1781364;80;21302;-45
2021/04/11 05:31:28;;;;;;;20.30;6.92;;;;;;;11.28;39.57;102737.22;1775679;79;21120;-48
2021/04/11 05:34:03;;;;;;;10.58;5.90;;;;;;;11.33;39.86;102738.11;1771550;79;23100;-47
2021/04/11 05:36:49;;;;;;;49.57;10.37;;;;;;;11.31;40.01;102742.89;1739273;82;21152;-50
2021/04/11 05:39:53;;;;;;;10.30;5.40;;;;;;;11.31;40.44;102741.13;1734714;82;21346;-48
2021/04/11 05:42:48;;;;;;;34.35;8.78;;;;;;;11.32;40.29;102746.80;1724610;82;21184;-48
2021/04/11 05:45:23;;;;;;;52.83;10.38;;;;;;;11.36;40.69;102748.56;1701037;84;21181;-50
2021/04/11 05:48:21;;;;;;;75.57;13.72;;;;;;;11.50;40.35;102744.73;1701598;84;21178;-48
2021/04/11 05:51:09;;;;;;;22.07;6.87;;;;;;;11.70;39.84;102748.80;1686321;85;21168;-45
2021/04/11 05:53:50;;;;;;;151.78;20.23;;;;;;;11.99;39.06;102749.81;1701661;84;21222;-50
2021/04/11 05:56:37;;;;;;;28.30;7.92;;;;;;;12.39;38.25;102749.48;1792172;79;28164;-48
2021/04/11 05:59:11;;;;;;;8.63;5.75;;;;;;;12.61;37.93;102745.61;1750640;80;21771;-50
2021/04/11 06:01:47;;;;;;;16.82;6.50;;;;;;;12.97;37.18;102753.50;1750406;81;21215;-46
2021/04/11 06:04:37;;;;;;;7.33;4.85;;;;;;;13.16;37.02;102758.75;1750613;81;21564;-46
2021/04/11 06:07:36;;;;;;;5.97;4.87;;;;;;;13.31;36.99;102757.44;1748632;81;21132;-46
2021/04/11 06:10:11;;;;;;;5.35;4.80;;;;;;;13.49;37.26;102756.09;1750520;81;21116;-49
2021/04/11 06:12:59;;;;;;;5.90;4.90;;;;;;;13.87;37.89;102747.69;1803425;79;23081;-45
2021/04/11 06:15:33;;;;;;;6.65;4.58;;;;;;;14.21;37.71;102751.91;1696831;83;21200;-50
2021/04/11 06:18:04;;;;;;;5.70;4.85;;;;;;;14.57;37.47;102746.48;1692773;83;21227;-48
2021/04/11 06:20:32;;;;;;;5.77;4.90;;;;;;;15.07;37.57;102755.70;1682142;83;21168;-50
2021/04/11 06:23:16;;;;;;;8.95;5.12;;;;;;;15.07;37.57;102755.70;1699517;83;21597;-47
2021/04/11 06:25:49;;;;;;;6.80;5.78;;;;;;;15.28;36.72;102757.70;1697745;83;21668;-49
2021/04/11 06:28:22;;;;;;;8.73;5.40;;;;;;;15.36;36.90;102758.94;1677353;83;21248;-49
2021/04/11 06:31:07;;;;;;;6.15;4.55;;;;;;;15.45;37.22;102757.58;1810187;79;23014;-45
2021/04/11 06:33:41;;;;;;;11.12;5.85;;;;;;;15.45;37.34;102762.39;1784170;80;21184;-47
2021/04/11 06:36:25;;;;;;;6.45;5.08;;;;;;;15.61;37.44;102764.83;1773199;80;21187;-45
2021/04/11 06:39:02;;;;;;;7.75;5.58;;;;;;;15.74;37.53;102767.33;1781639;80;21183;-48
2021/04/11 06:42:01;;;;;;;7.42;4.50;;;;;;;15.82;36.97;102762.86;1752376;80;21184;-46
2021/04/11 06:45:24;;;;;;;6.33;4.97;;;;;;;15.71;36.70;102764.72;1779776;80;21537;-45
2021/04/11 06:48:10;;;;;;;7.60;5.12;;;;;;;15.61;37.15;102768.34;1780125;80;21294;-48
2021/04/11 06:50:58;;;;;;;5.55;4.95;;;;;;;15.54;37.32;102766.64;1780055;80;21195;-49
2021/04/11 06:53:38;;;;;;;7.17;5.30;;;;;;;15.50;37.63;102766.25;1779391;80;21164;-46
2021/04/11 06:56:28;;;;;;;6.25;5.03;;;;;;;15.47;37.73;102763.68;1779635;80;21163;-50
2021/04/11 06:59:20;;;;;;;6.33;5.25;;;;;;;15.50;37.88;102761.01;1762000;80;21285;-48
2021/04/11 07:02:02;;;;;;;7.12;5.53;;;;;;;15.53;37.54;102765.36;1775059;80;21152;-46
2021/04/11 07:04:59;;;;;;;9.50;5.45;;;;;;;15.57;37.10;102763.13;1777785;80;21160;-47
2021/04/11 07:08:02;;;;;;;7.85;4.90;;;;;;;15.56;36.72;102768.81;1694032;84;21219;-47
2021/04/11 07:10:44;;;;;;;8.00;5.45;;;;;;;15.63;36.25;102769.19;1696534;84;21173;-47
2021/04/11 07:13:31;;;;;;;;;;;;;;;15.73;36.09;102775.19;1704833;84;21255;-46
2021/04/11 07:16:46;;;;;;;7.92;5.42;;;;;;;15.80;36.52;102771.63;1698165;84;20148;-45
2021/04/11 07:19:32;;;;;;;7.10;5.33;;;;;;;15.88;35.11;102770.66;1701985;84;21302;-45
2021/04/11 07:22:17;;;;;;;7.05;5.30;;;;;;;16.15;34.59;102765.08;1812628;79;22877;-49
2021/04/11 07:25:33;;;;;;;10.08;6.60;;;;;;;16.22;34.35;102762.77;1773051;80;21124;-48
2021/04/11 07:28:30;;;;;;;11.33;7.05;;;;;;;16.39;33.47;102766.92;1778276;80;21282;-51
2021/04/11 07:31:26;;;;;;;13.55;7.17;;;;;;;16.52;31.84;102760.20;1776422;80;21152;-45
2021/04/11 07:34:30;;;;;;;12.68;6.85;;;;;;;16.66;31.03;102759.99;1769984;80;21302;-46
2021/04/11 07:37:15;;;;;;;8.93;6.75;;;;;;;16.73;30.88;102759.02;1710610;83;21168;-46
2021/04/11 07:40:14;;;;;;;9.65;6.58;;;;;;;16.67;29.72;102751.23;1711157;83;21179;-46
2021/04/11 07:43:32;;;;;;;11.28;7.17;;;;;;;16.61;30.33;102748.70;1671706;83;21223;-49
2021/04/11 07:46:26;;;;;;;10.05;8.13;;;;;;;16.54;29.84;102752.30;1702424;83;21199;-47
2021/04/11 07:49:24;;;;;;;9.73;7.60;;;;;;;16.37;30.11;102745.05;1710787;83;21184;-46
2021/04/11 07:52:19;;;;;;;9.75;5.97;;;;;;;16.29;30.61;102744.73;1694537;83;21659;-47
2021/04/11 07:55:11;;;;;;;9.30;6.33;;;;;;;16.26;30.15;102744.77;1709545;83;21322;-51
2021/04/11 07:58:13;;;;;;;8.95;6.17;;;;;;;16.20;29.87;102742.66;1711302;83;21605;-46
2021/04/11 08:01:09;;;;;;;8.48;5.37;;;;;;;16.13;30.28;102744.53;1710628;83;21195;-47
2021/04/11 08:04:08;;;;;;;8.98;6.50;;;;;;;16.12;30.64;102736.20;1810206;79;22314;-48
2021/04/11 08:07:06;;;;;;;13.08;7.47;;;;;;;16.07;29.90;102740.64;1774670;80;21153;-44
2021/04/11 08:09:51;;;;;;;9.95;6.67;;;;;;;16.04;30.42;102740.70;1774163;80;21211;-48
2021/04/11 08:13:05;;;;;;;8.38;5.65;;;;;;;16.03;29.97;102736.31;1759313;80;21163;-48
2021/04/11 08:15:57;;;;;;;6.58;5.25;;;;;;;16.04;29.15;102730.19;1780114;80;21148;-48
2021/04/11 08:18:47;;;;;;;9.65;6.28;;;;;;;16.06;29.35;102728.41;1693515;84;21623;-47
2021/04/11 08:21:40;;;;;;;9.85;5.95;;;;;;;16.09;28.78;102732.30;1693171;85;21172;-46
2021/04/11 08:24:48;;;;;;;8.90;6.28;;;;;;;16.13;28.89;102732.71;1691032;85;21191;-48
2021/04/11 08:27:46;;;;;;;10.72;6.70;;;;;;;16.27;28.99;102728.13;1804406;79;23100;-49
2021/04/11 08:30:32;;;;;;;9.30;6.42;;;;;;;16.32;29.32;102727.20;1705338;83;21196;-46
2021/04/11 08:33:14;;;;;;;7.92;5.35;;;;;;;16.39;29.01;102731.45;1705033;84;21179;-48
2021/04/11 08:36:12;;;;;;;10.58;5.22;;;;;;;16.45;28.39;102731.36;1682417;85;21180;-50
2021/04/11 08:39:32;;;;;;;8.65;5.28;;;;;;;16.50;28.21;102726.95;1717760;83;21317;-46
2021/04/11 08:42:11;;;;;;;13.90;5.35;;;;;;;16.50;27.54;102732.21;1701926;84;21161;-45
2021/04/11 08:44:49;;;;;;;7.87;5.30;;;;;;;16.48;28.29;102724.76;1702651;84;21243;-45
2021/04/11 08:47:43;;;;;;;5.37;4.70;;;;;;;16.49;28.11;102726.48;1717204;83;21651;-49
2021/04/11 08:50:25;;;;;;;8.95;5.47;;;;;;;16.51;28.35;102728.67;1677183;85;21350;-47
2021/04/11 08:53:39;;;;;;;11.60;5.22;;;;;;;16.62;28.50;102722.82;1771588;79;23505;-48
2021/04/11 08:56:18;;;;;;;8.78;6.15;;;;;;;16.62;28.48;102717.56;1687981;85;21610;-50
2021/04/11 08:59:17;;;;;;;9.88;5.70;;;;;;;16.71;27.80;102722.22;1802193;79;23075;-51
2021/04/11 09:02:07;;;;;;;47.88;8.55;;;;;;;16.69;27.82;102711.33;1785731;80;21608;-46
2021/04/11 09:05:02;;;;;;;9.03;6.72;;;;;;;16.72;27.47;102712.14;1694733;83;21211;-51
2021/04/11 09:08:15;;;;;;;7.30;5.67;;;;;;;16.78;27.15;102706.78;1705508;83;21605;-49
2021/04/11 09:11:14;;;;;;;12.70;5.70;;;;;;;16.84;27.44;102707.11;1694195;83;21156;-46
2021/04/11 09:14:28;;;;;;;10.85;6.10;;;;;;;16.92;27.59;102706.53;1702597;83;21176;-50
2021/04/11 09:17:25;;;;;;;9.93;6.45;;;;;;;17.05;27.21;102704.13;1689471;83;21204;-46
2021/04/11 09:20:18;;;;;;;8.28;7.25;;;;;;;17.15;26.48;102699.11;1697976;83;21180;-48
2021/04/11 09:23:08;;;;;;;13.18;8.78;;;;;;;17.23;26.00;102701.16;1703252;83;21218;-49
2021/04/11 09:25:36;;;;;;;14.53;8.08;;;;;;;17.25;25.44;102695.41;1700350;83;21311;-50
2021/04/11 09:28:15;;;;;;;12.45;7.87;;;;;;;17.27;25.51;102698.89;1703407;83;21150;-50
2021/04/11 09:31:18;;;;;;;9.38;7.08;;;;;;;17.28;25.24;102695.38;1703397;83;21162;-49
2021/04/11 09:34:09;;;;;;;12.82;8.85;;;;;;;17.28;25.31;102695.81;1694227;83;21180;-50
2021/04/11 09:37:04;;;;;;;10.35;6.87;;;;;;;17.26;25.28;102687.95;1698657;83;21577;-47
2021/04/11 09:39:59;;;;;;;9.80;7.45;;;;;;;17.28;25.36;102686.16;1700674;83;21251;-47
2021/04/11 09:42:48;;;;;;;8.40;6.33;;;;;;;17.33;25.08;102689.55;1777759;80;21152;-49
2021/04/11 09:45:37;;;;;;;8.28;6.08;;;;;;;17.36;25.23;102685.56;1791588;80;21596;-52
2021/04/11 09:48:40;;;;;;;8.23;6.58;;;;;;;17.41;25.18;102683.73;1788266;80;21273;-46
2021/04/11 09:51:39;;;;;;;7.78;6.00;;;;;;;17.49;25.23;102676.58;1744330;81;21299;-49
2021/04/11 09:54:38;;;;;;;7.47;5.85;;;;;;;17.61;25.01;102675.02;1731054;82;21637;-48
2021/04/11 09:57:41;;;;;;;6.12;5.53;;;;;;;17.75;24.81;102680.85;1723917;82;21170;-50
2021/04/11 10:00:33;;;;;;;8.10;5.62;;;;;;;17.83;24.19;102677.61;1713606;83;21296;-48
2021/04/11 10:03:27;;;;;;;9.30;6.20;;;;;;;17.92;24.21;102675.23;1702922;83;21178;-51
2021/04/11 10:06:31;;;;;;;7.42;6.17;;;;;;;17.98;24.51;102675.09;1719858;83;21164;-46
2021/04/11 10:09:14;;;;;;;8.40;6.60;;;;;;;18.05;24.25;102671.44;1705462;83;21179;-47
2021/04/11 10:11:57;;;;;;;7.20;5.95;;;;;;;18.18;23.71;102673.31;1723283;83;21138;-52
2021/04/11 10:14:56;;;;;;;7.08;5.85;;;;;;;18.10;23.64;102668.23;1768930;81;21541;-51
2021/04/11 10:17:54;;;;;;;8.30;5.17;;;;;;;18.09;23.74;102667.83;1763041;81;21156;-48
2021/04/11 10:20:36;;;;;;;7.08;5.83;;;;;;;18.16;24.21;102668.53;1728147;82;21585;-48
2021/04/11 10:23:32;;;;;;;10.65;5.85;;;;;;;18.27;24.03;102667.41;1727315;82;21149;-49
2021/04/11 10:26:04;;;;;;;9.55;6.22;;;;;;;18.34;24.22;102667.66;1778409;81;21180;-45
2021/04/11 10:28:49;;;;;;;7.72;5.22;;;;;;;18.42;23.70;102659.11;1717301;82;21166;-49
2021/04/11 10:31:44;;;;;;;7.87;5.65;;;;;;;18.46;23.51;102660.83;1759095;81;21152;-48
2021/04/11 10:34:33;;;;;;;5.80;5.20;;;;;;;18.49;24.02;102659.86;1734814;82;21133;-47
2021/04/11 10:37:35;;;;;;;8.03;5.40;;;;;;;18.56;23.51;102656.19;1776690;81;21153;-46
2021/04/11 10:40:26;;;;;;;5.45;4.87;;;;;;;18.61;23.46;102651.65;1721005;83;21615;-49
2021/04/11 10:43:17;;;;;;;6.42;4.80;;;;;;;18.64;23.86;102646.31;1733105;82;21234;-49
2021/04/11 10:46:12;;;;;;;5.00;4.50;;;;;;;18.72;23.86;102648.30;1726988;83;21613;-46
2021/04/11 10:49:03;;;;;;;5.25;4.75;;;;;;;18.75;23.31;102632.86;1725881;83;21197;-49
2021/04/11 10:51:53;;;;;;;5.85;5.20;;;;;;;18.79;23.14;102632.75;1803169;79;23982;-45
2021/04/11 10:54:51;;;;;;;20.08;10.15;;;;;;;18.76;23.32;102638.09;1768142;80;21132;-49
2021/04/11 10:57:42;;;;;;;10.40;8.23;;;;;;;18.79;23.25;102635.39;1780660;80;21589;-46
2021/04/11 11:00:54;;;;;;;14.23;9.08;;;;;;;18.83;23.55;102635.72;1772295;80;21171;-46
2021/04/11 11:04:01;;;;;;;8.23;6.75;;;;;;;18.91;23.30;102621.87;1784774;80;21576;-49
2021/04/11 11:07:01;;;;;;;13.15;8.40;;;;;;;18.93;22.69;102617.42;1779203;80;21172;-46
2021/04/11 11:09:59;;;;;;;11.18;6.87;;;;;;;18.95;22.96;102621.33;1685353;85;21380;-45
2021/04/11 11:12:48;;;;;;;11.93;6.35;;;;;;;19.03;23.96;102620.66;1674969;85;21277;-49
2021/04/11 11:15:45;;;;;;;6.53;5.35;;;;;;;19.14;24.09;102624.75;1672734;85;21193;-45
2021/04/11 11:18:35;;;;;;;5.90;5.28;;;;;;;19.24;24.45;102620.95;1682414;85;21785;-48
2021/04/11 11:21:33;;;;;;;6.42;4.95;;;;;;;19.32;25.12;102610.16;1685557;85;21322;-47
2021/04/11 11:24:13;;;;;;;6.47;5.62;;;;;;;19.39;25.36;102604.69;1684487;85;21310;-47
2021/04/11 11:27:05;;;;;;;4.92;4.42;;;;;;;19.44;25.78;102602.80;1684152;85;21220;-46
2021/04/11 11:30:20;;;;;;;7.42;5.42;;;;;;;19.55;25.34;102593.69;1807195;79;22455;-46
2021/04/11 11:33:33;;;;;;;6.20;5.17;;;;;;;19.53;24.99;102591.09;1774440;80;21588;-50
2021/04/11 11:36:13;;;;;;;6.20;5.10;;;;;;;19.53;25.49;102583.17;1782150;80;21167;-51
2021/04/11 11:38:49;;;;;;;6.45;4.75;;;;;;;19.54;25.44;102576.13;1744009;82;21172;-46
2021/04/11 11:41:47;;;;;;;5.60;5.05;;;;;;;19.62;25.50;102574.95;1805216;79;22987;-49
2021/04/11 11:44:37;;;;;;;7.00;5.55;;;;;;;19.59;24.96;102571.11;1775916;80;21164;-46
2021/04/11 11:47:24;;;;;;;4.90;4.30;;;;;;;19.58;24.77;102564.56;1708767;84;21236;-47
2021/04/11 11:50:16;;;;;;;5.35;4.85;;;;;;;19.58;25.25;102563.23;1708765;84;21207;-51
2021/04/11 11:52:55;;;;;;;4.62;4.22;;;;;;;19.61;25.83;102561.81;1708232;84;21200;-46
2021/04/11 11:55:35;;;;;;;6.45;4.25;;;;;;;19.69;26.14;102551.87;1764809;79;23052;-53
2021/04/11 11:58:14;;;;;;;5.47;4.20;;;;;;;19.69;26.28;102554.52;1735586;82;21148;-46
2021/04/11 12:00:49;;;;;;;5.97;4.90;;;;;;;19.72;26.22;102551.79;1740736;82;21113;-49
2021/04/11 12:03:30;;;;;;;5.90;4.33;;;;;;;19.82;26.61;102556.73;1774850;79;23063;-50
2021/04/11 12:06:10;;;;;;;4.92;4.47;;;;;;;19.81;27.19;102555.00;1741290;82;21164;-46
2021/04/11 12:09:03;;;;;;;4.55;4.08;;;;;;;19.81;27.77;102558.95;1741374;82;21139;-49
2021/04/11 12:11:39;;;;;;;8.33;4.72;;;;;;;19.82;27.28;102556.73;1734788;82;21164;-46
2021/04/11 12:14:21;;;;;;;6.47;4.55;;;;;;;19.82;26.90;102547.94;1746703;82;21168;-55
2021/04/11 12:17:27;;;;;;;5.80;3.95;;;;;;;19.81;26.42;102557.64;1737202;81;21261;-47
2021/04/11 12:20:42;;;;;;;4.35;3.80;;;;;;;19.82;27.30;102553.22;1742986;82;21294;-51
2021/04/11 12:23:28;;;;;;;5.70;3.70;;;;;;;19.86;26.93;102552.21;1771637;79;23083;-49
2021/04/11 12:26:16;;;;;;;4.80;4.28;;;;;;;19.81;26.75;102550.16;1740306;82;21133;-49
2021/04/11 12:28:44;;;;;;;4.87;4.37;;;;;;;19.85;27.18;102547.83;1741180;82;21180;-46
2021/04/11 12:31:29;;;;;;;6.67;4.33;;;;;;;19.88;27.60;102549.06;1739110;82;21162;-47
2021/04/11 12:34:38;;;;;;;8.38;4.45;;;;;;;19.85;28.07;102545.19;1730708;82;21184;-48
2021/04/11 12:37:24;;;;;;;5.12;3.58;;;;;;;19.80;28.09;102542.72;1738031;82;21160;-50
2021/04/11 12:40:32;;;;;;;5.60;4.35;;;;;;;19.77;27.75;102541.92;1737570;82;21140;-46
2021/04/11 12:43:17;;;;;;;4.85;4.12;;;;;;;19.71;28.08;102532.88;1727806;82;21306;-50
2021/04/11 12:46:12;;;;;;;5.30;4.15;;;;;;;19.66;28.74;102536.97;1737048;82;21305;-48